sensor_id;sensor_type;location;lat;lon;timestamp;temperature;humidity
5164;DHT22;2601;50.224;10.126;2023-05-29T00:00:16;18.80;90.10
5164;DHT22;2601;50.224;10.126;2023-05-29T00:02:43;18.90;90.20
5164;DHT22;2601;50.224;10.126;2023-05-29T00:05:13;18.90;90.20
5164;DHT22;2601;50.224;10.126;2023-05-29T00:07:40;18.80;90.20
5164;DHT22;2601;50.224;10.126;2023-05-29T00:10:06;18.80;90.10
5164;DHT22;2601;50.224;10.126;2023-05-29T00:12:32;18.80;90.10
5164;DHT22;2601;50.224;10.126;2023-05-29T00:14:58;18.80;90.10
5164;DHT22;2601;50.224;10.126;2023-05-29T00:17:23;18.80;90.00
5164;DHT22;2601;50.224;10.126;2023-05-29T00:19:50;18.90;90.20
5164;DHT22;2601;50.224;10.126;2023-05-29T00:22:15;18.90;90.10
5164;DHT22;2601;50.224;10.126;2023-05-29T00:24:41;18.80;90.10
5164;DHT22;2601;50.224;10.126;2023-05-29T00:27:06;18.90;90.20
5164;DHT22;2601;50.224;10.126;2023-05-29T00:29:34;18.90;90.20
5164;DHT22;2601;50.224;10.126;2023-05-29T00:32:01;18.90;90.20
5164;DHT22;2601;50.224;10.126;2023-05-29T00:34:27;18.90;90.20
5164;DHT22;2601;50.224;10.126;2023-05-29T00:36:52;18.90;90.20
5164;DHT22;2601;50.224;10.126;2023-05-29T00:39:20;18.80;90.10
5164;DHT22;2601;50.224;10.126;2023-05-29T00:41:45;18.90;90.20
5164;DHT22;2601;50.224;10.126;2023-05-29T00:44:11;18.90;90.10
5164;DHT22;2601;50.224;10.126;2023-05-29T00:46:36;18.80;90.20
5164;DHT22;2601;50.224;10.126;2023-05-29T00:49:03;18.90;90.20
5164;DHT22;2601;50.224;10.126;2023-05-29T00:51:30;18.80;90.10
5164;DHT22;2601;50.224;10.126;2023-05-29T00:53:57;18.80;90.20
5164;DHT22;2601;50.224;10.126;2023-05-29T00:56:24;18.80;90.10
5164;DHT22;2601;50.224;10.126;2023-05-29T00:58:50;18.80;90.10
5164;DHT22;2601;50.224;10.126;2023-05-29T01:01:19;18.90;90.20
5164;DHT22;2601;50.224;10.126;2023-05-29T01:03:46;18.90;90.20
5164;DHT22;2601;50.224;10.126;2023-05-29T01:06:14;18.80;90.10
5164;DHT22;2601;50.224;10.126;2023-05-29T01:08:39;18.80;90.10
5164;DHT22;2601;50.224;10.126;2023-05-29T01:11:12;18.80;90.10
5164;DHT22;2601;50.224;10.126;2023-05-29T01:13:46;18.80;90.00
5164;DHT22;2601;50.224;10.126;2023-05-29T01:16:16;18.80;90.00
5164;DHT22;2601;50.224;10.126;2023-05-29T01:24:56;18.80;90.00
5164;DHT22;2601;50.224;10.126;2023-05-29T01:27:24;18.80;90.00
5164;DHT22;2601;50.224;10.126;2023-05-29T01:29:52;18.80;90.00
5164;DHT22;2601;50.224;10.126;2023-05-29T01:32:20;18.80;90.00
5164;DHT22;2601;50.224;10.126;2023-05-29T01:34:46;18.80;90.00
5164;DHT22;2601;50.224;10.126;2023-05-29T01:37:11;18.80;89.90
5164;DHT22;2601;50.224;10.126;2023-05-29T01:39:37;18.80;89.90
5164;DHT22;2601;50.224;10.126;2023-05-29T01:42:03;18.80;90.00
5164;DHT22;2601;50.224;10.126;2023-05-29T01:44:30;18.80;90.00
5164;DHT22;2601;50.224;10.126;2023-05-29T01:46:57;18.80;90.00
5164;DHT22;2601;50.224;10.126;2023-05-29T01:49:24;18.80;90.00
5164;DHT22;2601;50.224;10.126;2023-05-29T01:51:50;18.80;90.00
5164;DHT22;2601;50.224;10.126;2023-05-29T01:54:15;18.80;90.00
5164;DHT22;2601;50.224;10.126;2023-05-29T01:56:41;18.80;90.00
5164;DHT22;2601;50.224;10.126;2023-05-29T01:59:07;18.80;89.90
5164;DHT22;2601;50.224;10.126;2023-05-29T02:01:33;18.80;89.90
5164;DHT22;2601;50.224;10.126;2023-05-29T02:03:59;18.80;89.80
5164;DHT22;2601;50.224;10.126;2023-05-29T02:06:24;18.80;89.90
5164;DHT22;2601;50.224;10.126;2023-05-29T02:08:50;18.80;89.90
5164;DHT22;2601;50.224;10.126;2023-05-29T02:11:16;18.70;89.80
5164;DHT22;2601;50.224;10.126;2023-05-29T02:13:41;18.80;90.00
5164;DHT22;2601;50.224;10.126;2023-05-29T02:16:07;18.70;89.80
5164;DHT22;2601;50.224;10.126;2023-05-29T02:18:33;18.80;89.90
5164;DHT22;2601;50.224;10.126;2023-05-29T02:20:59;18.70;89.70
5164;DHT22;2601;50.224;10.126;2023-05-29T02:23:25;18.70;89.70
5164;DHT22;2601;50.224;10.126;2023-05-29T02:25:51;18.70;89.80
5164;DHT22;2601;50.224;10.126;2023-05-29T02:28:16;18.80;89.70
5164;DHT22;2601;50.224;10.126;2023-05-29T02:30:42;18.70;89.60
5164;DHT22;2601;50.224;10.126;2023-05-29T02:33:07;18.70;89.60
5164;DHT22;2601;50.224;10.126;2023-05-29T02:35:33;18.80;89.80
5164;DHT22;2601;50.224;10.126;2023-05-29T02:37:59;18.70;89.80
5164;DHT22;2601;50.224;10.126;2023-05-29T02:40:25;18.70;89.70
5164;DHT22;2601;50.224;10.126;2023-05-29T02:42:51;18.70;89.80
5164;DHT22;2601;50.224;10.126;2023-05-29T02:45:17;18.70;89.60
5164;DHT22;2601;50.224;10.126;2023-05-29T02:47:42;18.70;89.40
5164;DHT22;2601;50.224;10.126;2023-05-29T02:50:08;18.70;89.50
5164;DHT22;2601;50.224;10.126;2023-05-29T02:52:35;18.70;89.50
5164;DHT22;2601;50.224;10.126;2023-05-29T02:55:02;18.70;89.50
5164;DHT22;2601;50.224;10.126;2023-05-29T02:57:28;18.70;89.30
5164;DHT22;2601;50.224;10.126;2023-05-29T02:59:53;18.70;89.40
5164;DHT22;2601;50.224;10.126;2023-05-29T03:02:20;18.70;89.30
5164;DHT22;2601;50.224;10.126;2023-05-29T03:04:46;18.70;89.30
5164;DHT22;2601;50.224;10.126;2023-05-29T03:07:12;18.70;89.40
5164;DHT22;2601;50.224;10.126;2023-05-29T03:09:38;18.70;89.40
5164;DHT22;2601;50.224;10.126;2023-05-29T03:12:04;18.70;89.30
5164;DHT22;2601;50.224;10.126;2023-05-29T03:14:30;18.70;89.90
5164;DHT22;2601;50.224;10.126;2023-05-29T03:17:05;18.70;89.30
5164;DHT22;2601;50.224;10.126;2023-05-29T03:19:30;18.70;89.30
5164;DHT22;2601;50.224;10.126;2023-05-29T03:21:56;18.70;89.10
5164;DHT22;2601;50.224;10.126;2023-05-29T03:24:22;18.70;89.20
5164;DHT22;2601;50.224;10.126;2023-05-29T03:26:49;18.70;89.00
5164;DHT22;2601;50.224;10.126;2023-05-29T03:29:15;18.70;89.10
5164;DHT22;2601;50.224;10.126;2023-05-29T03:31:41;18.70;89.10
5164;DHT22;2601;50.224;10.126;2023-05-29T03:34:07;18.70;89.10
5164;DHT22;2601;50.224;10.126;2023-05-29T03:36:33;18.70;89.10
5164;DHT22;2601;50.224;10.126;2023-05-29T03:38:58;18.70;89.10
5164;DHT22;2601;50.224;10.126;2023-05-29T03:41:24;18.70;89.00
5164;DHT22;2601;50.224;10.126;2023-05-29T03:43:50;18.70;89.00
5164;DHT22;2601;50.224;10.126;2023-05-29T03:46:16;18.70;88.90
5164;DHT22;2601;50.224;10.126;2023-05-29T03:48:42;18.70;89.00
5164;DHT22;2601;50.224;10.126;2023-05-29T03:51:07;18.70;88.80
5164;DHT22;2601;50.224;10.126;2023-05-29T03:53:33;18.70;88.90
5164;DHT22;2601;50.224;10.126;2023-05-29T03:55:58;18.60;88.70
5164;DHT22;2601;50.224;10.126;2023-05-29T03:58:24;18.70;88.70
5164;DHT22;2601;50.224;10.126;2023-05-29T04:00:50;18.70;88.90
5164;DHT22;2601;50.224;10.126;2023-05-29T04:03:16;18.70;88.90
5164;DHT22;2601;50.224;10.126;2023-05-29T04:05:41;18.70;88.90
5164;DHT22;2601;50.224;10.126;2023-05-29T04:08:07;18.70;88.90
5164;DHT22;2601;50.224;10.126;2023-05-29T04:10:34;18.70;88.90
5164;DHT22;2601;50.224;10.126;2023-05-29T04:13:00;18.60;88.60
5164;DHT22;2601;50.224;10.126;2023-05-29T04:15:27;18.60;88.80
5164;DHT22;2601;50.224;10.126;2023-05-29T04:17:53;18.60;88.50
5164;DHT22;2601;50.224;10.126;2023-05-29T04:20:19;18.60;88.60
5164;DHT22;2601;50.224;10.126;2023-05-29T04:22:45;18.70;88.70
5164;DHT22;2601;50.224;10.126;2023-05-29T04:25:11;18.60;88.50
5164;DHT22;2601;50.224;10.126;2023-05-29T04:27:36;18.70;88.80
5164;DHT22;2601;50.224;10.126;2023-05-29T04:30:06;18.60;88.70
5164;DHT22;2601;50.224;10.126;2023-05-29T04:32:32;18.60;88.60
5164;DHT22;2601;50.224;10.126;2023-05-29T04:34:59;18.60;88.60
5164;DHT22;2601;50.224;10.126;2023-05-29T04:37:28;18.60;88.80
5164;DHT22;2601;50.224;10.126;2023-05-29T04:39:58;18.60;88.80
5164;DHT22;2601;50.224;10.126;2023-05-29T04:42:23;18.70;88.80
5164;DHT22;2601;50.224;10.126;2023-05-29T04:44:51;18.60;88.50
5164;DHT22;2601;50.224;10.126;2023-05-29T04:47:18;18.60;88.70
5164;DHT22;2601;50.224;10.126;2023-05-29T04:49:44;18.60;88.50
5164;DHT22;2601;50.224;10.126;2023-05-29T04:52:14;18.60;88.60
5164;DHT22;2601;50.224;10.126;2023-05-29T04:54:40;18.60;88.60
5164;DHT22;2601;50.224;10.126;2023-05-29T04:57:06;18.60;88.80
5164;DHT22;2601;50.224;10.126;2023-05-29T04:59:31;18.60;88.60
5164;DHT22;2601;50.224;10.126;2023-05-29T05:01:57;18.60;88.60
5164;DHT22;2601;50.224;10.126;2023-05-29T05:04:23;18.60;88.70
5164;DHT22;2601;50.224;10.126;2023-05-29T05:06:48;18.60;88.80
5164;DHT22;2601;50.224;10.126;2023-05-29T05:09:14;18.60;88.80
5164;DHT22;2601;50.224;10.126;2023-05-29T05:11:40;18.60;88.70
5164;DHT22;2601;50.224;10.126;2023-05-29T05:14:05;18.60;88.70
5164;DHT22;2601;50.224;10.126;2023-05-29T05:16:31;18.70;88.80
5164;DHT22;2601;50.224;10.126;2023-05-29T05:18:58;18.70;89.00
5164;DHT22;2601;50.224;10.126;2023-05-29T05:21:24;18.60;88.70
5164;DHT22;2601;50.224;10.126;2023-05-29T05:23:49;18.70;88.70
5164;DHT22;2601;50.224;10.126;2023-05-29T05:26:15;18.60;88.60
5164;DHT22;2601;50.224;10.126;2023-05-29T05:28:40;18.60;88.80
5164;DHT22;2601;50.224;10.126;2023-05-29T05:31:06;18.60;88.70
5164;DHT22;2601;50.224;10.126;2023-05-29T05:33:31;18.60;88.80
5164;DHT22;2601;50.224;10.126;2023-05-29T05:35:57;18.60;88.70
5164;DHT22;2601;50.224;10.126;2023-05-29T05:38:22;18.70;88.80
5164;DHT22;2601;50.224;10.126;2023-05-29T05:40:48;18.70;88.80
5164;DHT22;2601;50.224;10.126;2023-05-29T05:43:13;18.70;88.90
5164;DHT22;2601;50.224;10.126;2023-05-29T05:45:39;18.60;88.70
5164;DHT22;2601;50.224;10.126;2023-05-29T05:48:07;18.70;88.90
5164;DHT22;2601;50.224;10.126;2023-05-29T05:50:34;18.60;88.70
5164;DHT22;2601;50.224;10.126;2023-05-29T05:52:59;18.70;89.00
5164;DHT22;2601;50.224;10.126;2023-05-29T05:55:25;18.70;89.00
5164;DHT22;2601;50.224;10.126;2023-05-29T05:57:53;18.60;89.00
5164;DHT22;2601;50.224;10.126;2023-05-29T06:00:19;18.70;89.20
5164;DHT22;2601;50.224;10.126;2023-05-29T06:02:45;18.60;89.00
5164;DHT22;2601;50.224;10.126;2023-05-29T06:05:10;18.60;89.00
5164;DHT22;2601;50.224;10.126;2023-05-29T06:07:37;18.60;89.20
5164;DHT22;2601;50.224;10.126;2023-05-29T06:10:03;18.70;89.30
5164;DHT22;2601;50.224;10.126;2023-05-29T06:12:29;18.70;89.30
5164;DHT22;2601;50.224;10.126;2023-05-29T06:14:55;18.60;89.30
5164;DHT22;2601;50.224;10.126;2023-05-29T06:17:21;18.70;89.50
5164;DHT22;2601;50.224;10.126;2023-05-29T06:19:47;18.60;89.20
5164;DHT22;2601;50.224;10.126;2023-05-29T06:22:14;18.70;89.40
5164;DHT22;2601;50.224;10.126;2023-05-29T06:24:39;18.70;89.50
5164;DHT22;2601;50.224;10.126;2023-05-29T06:27:05;18.70;90.00
5164;DHT22;2601;50.224;10.126;2023-05-29T06:29:32;18.70;89.80
5164;DHT22;2601;50.224;10.126;2023-05-29T06:31:57;18.70;90.00
5164;DHT22;2601;50.224;10.126;2023-05-29T06:34:23;18.70;90.00
5164;DHT22;2601;50.224;10.126;2023-05-29T06:36:49;18.70;90.10
5164;DHT22;2601;50.224;10.126;2023-05-29T06:39:15;18.70;90.00
5164;DHT22;2601;50.224;10.126;2023-05-29T06:41:41;18.70;90.00
5164;DHT22;2601;50.224;10.126;2023-05-29T06:44:06;18.70;90.00
5164;DHT22;2601;50.224;10.126;2023-05-29T06:46:32;18.70;89.90
5164;DHT22;2601;50.224;10.126;2023-05-29T06:48:57;18.70;90.00
5164;DHT22;2601;50.224;10.126;2023-05-29T06:51:23;18.70;90.10
5164;DHT22;2601;50.224;10.126;2023-05-29T06:53:48;18.70;90.10
5164;DHT22;2601;50.224;10.126;2023-05-29T06:56:14;18.70;90.00
5164;DHT22;2601;50.224;10.126;2023-05-29T06:58:41;18.70;90.00
5164;DHT22;2601;50.224;10.126;2023-05-29T07:01:06;18.70;89.90
5164;DHT22;2601;50.224;10.126;2023-05-29T07:03:32;18.70;90.00
5164;DHT22;2601;50.224;10.126;2023-05-29T07:05:58;18.70;90.00
5164;DHT22;2601;50.224;10.126;2023-05-29T07:08:24;18.70;90.00
5164;DHT22;2601;50.224;10.126;2023-05-29T07:10:50;18.70;90.00
5164;DHT22;2601;50.224;10.126;2023-05-29T07:13:16;18.70;90.00
5164;DHT22;2601;50.224;10.126;2023-05-29T07:15:43;18.70;90.00
5164;DHT22;2601;50.224;10.126;2023-05-29T07:18:09;18.70;90.00
5164;DHT22;2601;50.224;10.126;2023-05-29T07:20:36;18.70;90.10
5164;DHT22;2601;50.224;10.126;2023-05-29T07:23:02;18.70;90.00
5164;DHT22;2601;50.224;10.126;2023-05-29T07:25:29;18.70;90.10
5164;DHT22;2601;50.224;10.126;2023-05-29T07:27:55;18.70;90.10
5164;DHT22;2601;50.224;10.126;2023-05-29T07:30:20;18.70;90.00
5164;DHT22;2601;50.224;10.126;2023-05-29T07:32:46;18.70;90.10
5164;DHT22;2601;50.224;10.126;2023-05-29T07:35:11;18.70;90.10
5164;DHT22;2601;50.224;10.126;2023-05-29T07:37:37;18.70;90.10
5164;DHT22;2601;50.224;10.126;2023-05-29T07:40:03;18.70;90.10
5164;DHT22;2601;50.224;10.126;2023-05-29T07:42:33;18.70;90.10
5164;DHT22;2601;50.224;10.126;2023-05-29T07:44:59;18.70;90.10
5164;DHT22;2601;50.224;10.126;2023-05-29T07:47:25;18.70;90.10
5164;DHT22;2601;50.224;10.126;2023-05-29T07:49:50;18.70;90.20
5164;DHT22;2601;50.224;10.126;2023-05-29T07:52:17;18.70;90.20
5164;DHT22;2601;50.224;10.126;2023-05-29T07:54:43;18.70;90.20
5164;DHT22;2601;50.224;10.126;2023-05-29T07:57:09;18.70;90.30
5164;DHT22;2601;50.224;10.126;2023-05-29T07:59:40;18.70;90.30
5164;DHT22;2601;50.224;10.126;2023-05-29T08:02:07;18.70;90.30
5164;DHT22;2601;50.224;10.126;2023-05-29T08:04:32;18.70;90.30
5164;DHT22;2601;50.224;10.126;2023-05-29T08:07:02;18.70;90.30
5164;DHT22;2601;50.224;10.126;2023-05-29T08:09:31;18.70;90.30
5164;DHT22;2601;50.224;10.126;2023-05-29T08:11:57;18.70;90.30
5164;DHT22;2601;50.224;10.126;2023-05-29T08:14:22;18.70;90.20
5164;DHT22;2601;50.224;10.126;2023-05-29T08:16:48;18.80;90.20
5164;DHT22;2601;50.224;10.126;2023-05-29T08:19:13;18.80;90.30
5164;DHT22;2601;50.224;10.126;2023-05-29T08:21:39;18.70;90.20
5164;DHT22;2601;50.224;10.126;2023-05-29T08:24:06;18.80;90.30
5164;DHT22;2601;50.224;10.126;2023-05-29T08:26:32;18.80;90.30
5164;DHT22;2601;50.224;10.126;2023-05-29T08:28:57;18.80;90.30
5164;DHT22;2601;50.224;10.126;2023-05-29T08:31:23;18.80;90.30
5164;DHT22;2601;50.224;10.126;2023-05-29T08:33:53;18.80;90.30
5164;DHT22;2601;50.224;10.126;2023-05-29T08:36:19;18.80;90.30
5164;DHT22;2601;50.224;10.126;2023-05-29T08:38:48;18.80;90.30
5164;DHT22;2601;50.224;10.126;2023-05-29T08:44:04;18.80;90.20
5164;DHT22;2601;50.224;10.126;2023-05-29T08:46:32;18.70;90.20
5164;DHT22;2601;50.224;10.126;2023-05-29T08:48:58;18.80;90.30
5164;DHT22;2601;50.224;10.126;2023-05-29T08:51:29;18.80;90.30
5164;DHT22;2601;50.224;10.126;2023-05-29T08:53:56;18.80;90.30
5164;DHT22;2601;50.224;10.126;2023-05-29T08:56:22;18.80;90.30
5164;DHT22;2601;50.224;10.126;2023-05-29T08:58:48;18.80;90.40
5164;DHT22;2601;50.224;10.126;2023-05-29T09:01:14;18.80;90.30
5164;DHT22;2601;50.224;10.126;2023-05-29T09:03:40;18.80;90.40
5164;DHT22;2601;50.224;10.126;2023-05-29T09:06:07;18.80;90.90
5164;DHT22;2601;50.224;10.126;2023-05-29T09:08:34;18.80;91.00
5164;DHT22;2601;50.224;10.126;2023-05-29T09:11:00;18.90;91.00
5164;DHT22;2601;50.224;10.126;2023-05-29T09:13:25;18.90;91.20
5164;DHT22;2601;50.224;10.126;2023-05-29T09:16:00;18.90;91.20
5164;DHT22;2601;50.224;10.126;2023-05-29T09:18:30;18.90;92.50
5164;DHT22;2601;50.224;10.126;2023-05-29T09:20:57;18.90;92.70
5164;DHT22;2601;50.224;10.126;2023-05-29T09:23:23;19.00;93.00
5164;DHT22;2601;50.224;10.126;2023-05-29T09:25:52;18.90;93.20
5164;DHT22;2601;50.224;10.126;2023-05-29T09:28:21;19.00;93.30
5164;DHT22;2601;50.224;10.126;2023-05-29T09:30:49;19.00;93.30
5164;DHT22;2601;50.224;10.126;2023-05-29T09:33:15;19.00;93.50
5164;DHT22;2601;50.224;10.126;2023-05-29T09:35:46;19.00;93.50
5164;DHT22;2601;50.224;10.126;2023-05-29T09:38:13;18.90;93.60
5164;DHT22;2601;50.224;10.126;2023-05-29T09:40:40;19.00;93.60
5164;DHT22;2601;50.224;10.126;2023-05-29T09:43:10;18.90;93.60
5164;DHT22;2601;50.224;10.126;2023-05-29T09:45:40;19.00;93.70
5164;DHT22;2601;50.224;10.126;2023-05-29T09:48:13;19.00;93.70
5164;DHT22;2601;50.224;10.126;2023-05-29T09:50:39;18.90;93.60
5164;DHT22;2601;50.224;10.126;2023-05-29T09:53:16;19.00;93.60
5164;DHT22;2601;50.224;10.126;2023-05-29T09:55:45;19.00;93.70
5164;DHT22;2601;50.224;10.126;2023-05-29T09:58:14;19.00;93.80
5164;DHT22;2601;50.224;10.126;2023-05-29T10:00:41;18.90;93.80
5164;DHT22;2601;50.224;10.126;2023-05-29T10:03:07;19.00;93.80
5164;DHT22;2601;50.224;10.126;2023-05-29T10:05:32;18.90;93.70
5164;DHT22;2601;50.224;10.126;2023-05-29T10:07:59;19.00;93.70
5164;DHT22;2601;50.224;10.126;2023-05-29T10:10:27;19.00;93.80
5164;DHT22;2601;50.224;10.126;2023-05-29T10:12:53;18.90;93.70
5164;DHT22;2601;50.224;10.126;2023-05-29T10:15:23;18.90;93.70
5164;DHT22;2601;50.224;10.126;2023-05-29T10:18:07;18.90;93.70
5164;DHT22;2601;50.224;10.126;2023-05-29T10:20:37;18.90;93.70
5164;DHT22;2601;50.224;10.126;2023-05-29T10:23:04;18.90;93.80
5164;DHT22;2601;50.224;10.126;2023-05-29T10:25:32;19.00;93.70
5164;DHT22;2601;50.224;10.126;2023-05-29T10:27:58;19.00;93.70
5164;DHT22;2601;50.224;10.126;2023-05-29T10:33:33;19.00;93.70
5164;DHT22;2601;50.224;10.126;2023-05-29T10:36:19;18.90;93.60
5164;DHT22;2601;50.224;10.126;2023-05-29T10:38:48;18.90;93.80
5164;DHT22;2601;50.224;10.126;2023-05-29T10:49:19;19.00;94.00
5164;DHT22;2601;50.224;10.126;2023-05-29T10:51:46;19.00;93.90
5164;DHT22;2601;50.224;10.126;2023-05-29T10:54:12;19.00;93.90
5164;DHT22;2601;50.224;10.126;2023-05-29T10:56:39;18.90;93.90
5164;DHT22;2601;50.224;10.126;2023-05-29T10:59:07;18.90;94.00
5164;DHT22;2601;50.224;10.126;2023-05-29T11:01:33;19.00;94.00
5164;DHT22;2601;50.224;10.126;2023-05-29T11:06:43;19.00;94.10
5164;DHT22;2601;50.224;10.126;2023-05-29T11:09:38;18.90;94.00
5164;DHT22;2601;50.224;10.126;2023-05-29T11:12:23;18.90;93.90
5164;DHT22;2601;50.224;10.126;2023-05-29T11:15:09;19.00;94.00
5164;DHT22;2601;50.224;10.126;2023-05-29T11:20:11;18.90;94.40
5164;DHT22;2601;50.224;10.126;2023-05-29T11:25:25;19.10;94.70
5164;DHT22;2601;50.224;10.126;2023-05-29T11:27:52;18.90;94.80
5164;DHT22;2601;50.224;10.126;2023-05-29T11:30:18;19.00;94.90
5164;DHT22;2601;50.224;10.126;2023-05-29T11:32:45;19.00;94.80
5164;DHT22;2601;50.224;10.126;2023-05-29T11:35:12;19.00;94.90
5164;DHT22;2601;50.224;10.126;2023-05-29T11:37:39;19.00;95.00
5164;DHT22;2601;50.224;10.126;2023-05-29T11:40:06;19.00;95.00
5164;DHT22;2601;50.224;10.126;2023-05-29T11:42:33;19.00;95.00
5164;DHT22;2601;50.224;10.126;2023-05-29T11:45:19;19.00;95.20
5164;DHT22;2601;50.224;10.126;2023-05-29T11:48:02;19.00;95.20
5164;DHT22;2601;50.224;10.126;2023-05-29T11:50:31;18.90;95.20
5164;DHT22;2601;50.224;10.126;2023-05-29T11:52:57;19.00;95.20
5164;DHT22;2601;50.224;10.126;2023-05-29T11:55:24;19.00;95.20
5164;DHT22;2601;50.224;10.126;2023-05-29T11:57:55;19.10;95.30
5164;DHT22;2601;50.224;10.126;2023-05-29T12:00:21;19.00;95.60
5164;DHT22;2601;50.224;10.126;2023-05-29T12:02:48;19.10;95.50
5164;DHT22;2601;50.224;10.126;2023-05-29T12:05:15;19.10;95.50
5164;DHT22;2601;50.224;10.126;2023-05-29T12:07:52;19.00;95.60
5164;DHT22;2601;50.224;10.126;2023-05-29T12:10:20;19.10;95.70
5164;DHT22;2601;50.224;10.126;2023-05-29T12:12:59;18.90;95.60
5164;DHT22;2601;50.224;10.126;2023-05-29T12:15:26;19.00;95.60
5164;DHT22;2601;50.224;10.126;2023-05-29T12:17:54;19.00;95.60
5164;DHT22;2601;50.224;10.126;2023-05-29T12:20:22;18.90;95.60
5164;DHT22;2601;50.224;10.126;2023-05-29T12:22:49;19.00;95.60
5164;DHT22;2601;50.224;10.126;2023-05-29T12:25:18;19.10;95.70
5164;DHT22;2601;50.224;10.126;2023-05-29T12:27:46;19.10;95.70
5164;DHT22;2601;50.224;10.126;2023-05-29T12:30:23;19.10;95.70
5164;DHT22;2601;50.224;10.126;2023-05-29T12:32:51;19.00;95.70
5164;DHT22;2601;50.224;10.126;2023-05-29T12:37:57;19.00;95.70
5164;DHT22;2601;50.224;10.126;2023-05-29T12:42:58;18.90;99.90
5164;DHT22;2601;50.224;10.126;2023-05-29T12:45:26;19.10;99.90
5164;DHT22;2601;50.224;10.126;2023-05-29T12:47:59;19.00;99.90
5164;DHT22;2601;50.224;10.126;2023-05-29T12:55:30;19.20;99.90
5164;DHT22;2601;50.224;10.126;2023-05-29T12:57:56;19.10;99.90
5164;DHT22;2601;50.224;10.126;2023-05-29T13:00:22;19.10;99.90
5164;DHT22;2601;50.224;10.126;2023-05-29T13:02:48;19.20;99.90
5164;DHT22;2601;50.224;10.126;2023-05-29T13:12:41;19.00;99.90
5164;DHT22;2601;50.224;10.126;2023-05-29T13:29:55;19.10;99.90
5164;DHT22;2601;50.224;10.126;2023-05-29T13:32:21;19.20;99.90
5164;DHT22;2601;50.224;10.126;2023-05-29T13:34:46;19.30;99.90
5164;DHT22;2601;50.224;10.126;2023-05-29T13:37:12;19.20;99.90
5164;DHT22;2601;50.224;10.126;2023-05-29T13:39:38;19.10;99.90
5164;DHT22;2601;50.224;10.126;2023-05-29T13:42:04;19.10;99.90
5164;DHT22;2601;50.224;10.126;2023-05-29T13:44:30;19.10;99.90
5164;DHT22;2601;50.224;10.126;2023-05-29T13:46:55;19.20;99.90
5164;DHT22;2601;50.224;10.126;2023-05-29T13:49:21;19.30;99.90
5164;DHT22;2601;50.224;10.126;2023-05-29T13:51:47;19.10;99.90
5164;DHT22;2601;50.224;10.126;2023-05-29T13:54:15;19.30;99.90
5164;DHT22;2601;50.224;10.126;2023-05-29T14:06:27;19.10;99.90
5164;DHT22;2601;50.224;10.126;2023-05-29T14:11:20;19.10;99.90
5164;DHT22;2601;50.224;10.126;2023-05-29T14:13:45;19.10;99.90
5164;DHT22;2601;50.224;10.126;2023-05-29T14:16:11;19.10;99.90
5164;DHT22;2601;50.224;10.126;2023-05-29T14:18:36;19.20;99.90
5164;DHT22;2601;50.224;10.126;2023-05-29T14:21:02;19.20;99.90
5164;DHT22;2601;50.224;10.126;2023-05-29T14:23:28;19.10;99.90
5164;DHT22;2601;50.224;10.126;2023-05-29T14:25:53;19.20;99.90
5164;DHT22;2601;50.224;10.126;2023-05-29T14:33:12;19.10;99.90
5164;DHT22;2601;50.224;10.126;2023-05-29T14:35:37;19.30;99.90
5164;DHT22;2601;50.224;10.126;2023-05-29T14:40:29;19.10;99.90
5164;DHT22;2601;50.224;10.126;2023-05-29T17:53:50;20.20;99.90
5164;DHT22;2601;50.224;10.126;2023-05-29T17:56:18;19.40;91.30
5164;DHT22;2601;50.224;10.126;2023-05-29T17:58:44;19.40;90.80
5164;DHT22;2601;50.224;10.126;2023-05-29T18:01:11;19.40;90.90
5164;DHT22;2601;50.224;10.126;2023-05-29T18:03:36;19.40;90.90
5164;DHT22;2601;50.224;10.126;2023-05-29T18:06:02;19.40;90.90
5164;DHT22;2601;50.224;10.126;2023-05-29T18:08:28;19.40;90.90
5164;DHT22;2601;50.224;10.126;2023-05-29T18:10:53;19.40;90.90
5164;DHT22;2601;50.224;10.126;2023-05-29T18:13:19;19.40;90.90
5164;DHT22;2601;50.224;10.126;2023-05-29T18:15:45;19.40;91.00
5164;DHT22;2601;50.224;10.126;2023-05-29T18:18:11;19.40;91.00
5164;DHT22;2601;50.224;10.126;2023-05-29T18:20:36;19.30;90.90
5164;DHT22;2601;50.224;10.126;2023-05-29T18:23:02;19.40;91.00
5164;DHT22;2601;50.224;10.126;2023-05-29T18:25:28;19.40;91.00
5164;DHT22;2601;50.224;10.126;2023-05-29T18:27:53;19.30;90.90
5164;DHT22;2601;50.224;10.126;2023-05-29T18:30:19;19.30;90.90
5164;DHT22;2601;50.224;10.126;2023-05-29T18:32:44;19.30;90.90
5164;DHT22;2601;50.224;10.126;2023-05-29T18:35:10;19.30;90.90
5164;DHT22;2601;50.224;10.126;2023-05-29T18:37:35;19.30;90.90
5164;DHT22;2601;50.224;10.126;2023-05-29T18:40:01;19.30;90.90
5164;DHT22;2601;50.224;10.126;2023-05-29T18:42:27;19.30;90.90
5164;DHT22;2601;50.224;10.126;2023-05-29T18:44:54;19.30;90.90
5164;DHT22;2601;50.224;10.126;2023-05-29T18:47:20;19.40;91.00
5164;DHT22;2601;50.224;10.126;2023-05-29T18:49:46;19.30;90.90
5164;DHT22;2601;50.224;10.126;2023-05-29T18:52:13;19.40;91.00
5164;DHT22;2601;50.224;10.126;2023-05-29T18:54:39;19.40;91.00
5164;DHT22;2601;50.224;10.126;2023-05-29T18:57:05;19.30;90.90
5164;DHT22;2601;50.224;10.126;2023-05-29T18:59:33;19.40;91.00
5164;DHT22;2601;50.224;10.126;2023-05-29T19:01:58;19.40;91.00
5164;DHT22;2601;50.224;10.126;2023-05-29T19:04:24;19.40;91.00
5164;DHT22;2601;50.224;10.126;2023-05-29T19:06:49;19.30;90.90
5164;DHT22;2601;50.224;10.126;2023-05-29T19:09:17;19.30;90.90
5164;DHT22;2601;50.224;10.126;2023-05-29T19:11:43;19.40;91.00
5164;DHT22;2601;50.224;10.126;2023-05-29T19:14:11;19.30;90.90
5164;DHT22;2601;50.224;10.126;2023-05-29T19:16:36;19.30;90.90
5164;DHT22;2601;50.224;10.126;2023-05-29T19:19:02;19.40;91.00
5164;DHT22;2601;50.224;10.126;2023-05-29T19:21:28;19.40;91.00
5164;DHT22;2601;50.224;10.126;2023-05-29T19:23:54;19.40;91.00
5164;DHT22;2601;50.224;10.126;2023-05-29T19:26:21;19.30;90.90
5164;DHT22;2601;50.224;10.126;2023-05-29T19:28:48;19.30;90.90
5164;DHT22;2601;50.224;10.126;2023-05-29T19:31:15;19.40;91.00
5164;DHT22;2601;50.224;10.126;2023-05-29T19:33:41;19.40;91.00
5164;DHT22;2601;50.224;10.126;2023-05-29T19:36:07;19.40;90.90
5164;DHT22;2601;50.224;10.126;2023-05-29T19:38:33;19.30;90.90
5164;DHT22;2601;50.224;10.126;2023-05-29T19:40:58;19.40;91.00
5164;DHT22;2601;50.224;10.126;2023-05-29T19:43:24;19.40;91.00
5164;DHT22;2601;50.224;10.126;2023-05-29T19:45:53;19.30;90.90
5164;DHT22;2601;50.224;10.126;2023-05-29T19:48:19;19.40;90.90
5164;DHT22;2601;50.224;10.126;2023-05-29T19:50:44;19.40;91.00
5164;DHT22;2601;50.224;10.126;2023-05-29T19:53:10;19.40;90.90
5164;DHT22;2601;50.224;10.126;2023-05-29T19:55:39;19.40;90.90
5164;DHT22;2601;50.224;10.126;2023-05-29T19:58:05;19.40;91.00
5164;DHT22;2601;50.224;10.126;2023-05-29T20:00:31;19.40;91.00
5164;DHT22;2601;50.224;10.126;2023-05-29T20:02:56;19.40;91.00
5164;DHT22;2601;50.224;10.126;2023-05-29T20:05:22;19.40;90.90
5164;DHT22;2601;50.224;10.126;2023-05-29T20:07:48;19.40;90.90
5164;DHT22;2601;50.224;10.126;2023-05-29T20:10:13;19.40;91.00
5164;DHT22;2601;50.224;10.126;2023-05-29T20:12:39;19.40;90.90